Time;durP1;ratioP1;P1;durP2;ratioP2;P2;SDS_P1;SDS_P2;PMS_P1;PMS_P2;Temp;Humidity;BMP_temperature;BMP_pressure;BME280_temperature;BME280_humidity;BME280_pressure;Samples;Min_cycle;Max_cycle;Signal;HPM_P1;HPM_P2
2022/12/07 00:01:53;;;;;;;9.70;7.72;;;;;;;4.28;70.71;98911.66;5106747;28;20227;-75
2022/12/07 00:04:20;;;;;;;9.05;7.85;;;;;;;3.97;70.61;98865.53;5106095;28;20036;-75
2022/12/07 00:06:51;;;;;;;10.73;8.05;;;;;;;4.27;70.80;98918.66;5105217;28;20048;-75
2022/12/07 00:09:19;;;;;;;12.35;9.57;;;;;;;4.27;70.83;98909.94;5106304;28;20276;-75
2022/12/07 00:11:50;;;;;;;11.55;9.02;;;;;;;4.25;70.79;98911.75;5106003;28;20070;-75
2022/12/07 00:14:18;;;;;;;11.15;9.57;;;;;;;4.26;70.73;98911.72;5106257;28;20036;-75
2022/12/07 00:16:45;;;;;;;9.70;8.63;;;;;;;4.26;70.73;98911.72;5105819;28;20281;-76
2022/12/07 00:19:13;;;;;;;9.68;7.70;;;;;;;4.26;70.75;98908.22;5105925;28;20230;-75
2022/12/07 00:21:40;;;;;;;9.45;7.97;;;;;;;4.25;70.81;98927.50;5105913;28;20337;-75
2022/12/07 00:24:07;;;;;;;10.35;8.18;;;;;;;4.26;70.95;98916.09;5105995;28;20040;-75
2022/12/07 00:26:36;;;;;;;10.40;7.53;;;;;;;2.91;70.61;98676.34;5105295;28;20051;-75
2022/12/07 00:29:06;;;;;;;9.13;7.82;;;;;;;4.26;70.83;98902.97;5105795;28;20062;-75
2022/12/07 00:31:38;;;;;;;10.13;8.38;;;;;;;4.25;70.84;98914.38;5104775;28;20111;-75
2022/12/07 00:34:06;;;;;;;11.20;8.70;;;;;;;4.24;71.04;98903.03;5105542;28;20060;-75
2022/12/07 00:36:33;;;;;;;11.45;9.40;;;;;;;4.24;71.00;98904.81;5105701;28;20052;-76
2022/12/07 00:39:01;;;;;;;10.98;9.25;;;;;;;4.24;70.89;98917.91;5106475;28;20172;-76
2022/12/07 00:41:28;;;;;;;10.70;9.00;;;;;;;4.26;70.88;98906.47;5105032;28;20040;-75
2022/12/07 00:43:55;;;;;;;9.00;7.90;;;;;;;4.26;71.08;98900.34;5104653;28;20048;-75
2022/12/07 00:46:24;;;;;;;11.60;9.52;;;;;;;4.25;71.23;98902.13;5105680;28;20039;-73
2022/12/07 00:48:52;;;;;;;12.50;9.25;;;;;;;4.27;71.19;98899.44;5104734;28;20036;-73
2022/12/07 00:51:22;;;;;;;11.45;9.32;;;;;;;4.28;71.26;98901.16;5106073;28;20052;-74
2022/12/07 00:53:49;;;;;;;12.27;9.90;;;;;;;4.27;71.44;98902.94;5105494;28;20040;-74
2022/12/07 00:56:17;;;;;;;12.82;11.40;;;;;;;4.26;71.36;98895.09;5105441;28;20300;-74
2022/12/07 00:58:44;;;;;;;13.60;10.40;;;;;;;4.26;71.51;98901.22;5105379;28;20051;-74
2022/12/07 01:01:12;;;;;;;12.32;10.38;;;;;;;4.26;71.43;98900.34;5105957;28;20040;-74
2022/12/07 01:03:40;;;;;;;12.77;10.02;;;;;;;4.25;71.54;98891.63;5105689;28;20117;-74
2022/12/07 01:06:07;;;;;;;11.93;9.75;;;;;;;4.26;71.65;98908.22;5105363;28;20307;-74
2022/12/07 01:08:34;;;;;;;14.10;10.90;;;;;;;4.25;71.58;98912.63;5105369;28;20311;-74
2022/12/07 01:11:03;;;;;;;12.15;10.00;;;;;;;4.25;71.56;98910.00;5104611;28;20040;-74
2022/12/07 01:13:30;;;;;;;12.07;10.40;;;;;;;4.23;71.74;98903.94;5105899;28;20342;-74
2022/12/07 01:15:59;;;;;;;12.40;11.15;;;;;;;4.23;71.78;98908.34;5104701;28;20044;-74
2022/12/07 01:18:27;;;;;;;13.00;10.80;;;;;;;3.97;71.87;98862.91;5105235;28;20044;-74
2022/12/07 01:21:04;;;;;;;11.63;10.25;;;;;;;3.75;71.31;98830.50;5105277;28;20036;-74
2022/12/07 01:23:31;;;;;;;13.50;10.13;;;;;;;4.15;71.89;98911.22;5104421;28;20239;-74
2022/12/07 01:25:58;;;;;;;11.63;10.25;;;;;;;4.17;71.91;98912.00;5105503;28;20288;-74
2022/12/07 01:28:25;;;;;;;14.00;11.57;;;;;;;4.18;71.82;98903.22;5104695;28;20327;-74
2022/12/07 01:30:59;;;;;;;13.15;11.75;;;;;;;4.19;71.79;98910.19;5105535;28;20300;-74
2022/12/07 01:33:27;;;;;;;13.07;10.95;;;;;;;4.17;71.95;98910.25;5105307;28;20048;-74
2022/12/07 01:35:54;;;;;;;12.55;11.15;;;;;;;3.08;71.86;98757.75;5105133;28;20048;-75
2022/12/07 01:38:22;;;;;;;14.30;12.05;;;;;;;4.17;72.11;98918.13;5105554;28;20044;-75
2022/12/07 01:40:55;;;;;;;13.40;10.63;;;;;;;4.16;71.93;98913.78;5105349;28;20044;-75
2022/12/07 01:43:23;;;;;;;14.57;11.68;;;;;;;4.17;72.09;98914.63;5108855;28;20059;-75
2022/12/07 01:45:53;;;;;;;13.18;11.40;;;;;;;4.16;72.14;98916.41;5091308;28;20047;-75
2022/12/07 01:48:24;;;;;;;13.75;11.38;;;;;;;4.17;72.26;98920.72;5107865;28;20040;-75
2022/12/07 01:50:55;;;;;;;15.88;12.45;;;;;;;2.51;72.05;98630.63;5108041;28;20040;-75
2022/12/07 01:53:28;;;;;;;13.07;10.77;;;;;;;4.20;72.13;98919.81;5108178;28;20093;-75
2022/12/07 01:55:57;;;;;;;14.32;11.80;;;;;;;4.21;72.27;98912.78;5107732;28;20043;-75
2022/12/07 01:58:25;;;;;;;14.02;11.85;;;;;;;4.21;72.25;98915.41;5108443;28;20300;-75
2022/12/07 02:00:52;;;;;;;12.45;10.30;;;;;;;4.21;72.27;98907.53;5108432;28;20078;-75
2022/12/07 02:03:23;;;;;;;14.85;12.40;;;;;;;0.73;72.06;98320.50;5108676;28;20389;-75
2022/12/07 02:05:51;;;;;;;14.27;12.07;;;;;;;4.20;72.40;98901.44;5108628;28;20315;-75
2022/12/07 02:08:19;;;;;;;13.65;10.10;;;;;;;4.21;72.41;98899.66;5108860;28;20059;-75
2022/12/07 02:10:47;;;;;;;12.23;10.80;;;;;;;4.19;72.35;98894.44;5108545;28;20044;-75
2022/12/07 02:13:17;;;;;;;12.60;10.82;;;;;;;3.85;72.31;98845.84;5108549;28;20101;-75
2022/12/07 02:16:10;;;;;;;13.57;11.43;;;;;;;4.17;72.26;98906.75;5108152;28;20074;-75
2022/12/07 02:18:49;;;;;;;14.25;11.98;;;;;;;4.14;72.49;98897.25;5107216;28;20040;-75
2022/12/07 02:21:25;;;;;;;14.23;10.70;;;;;;;4.14;72.60;98896.38;5108055;28;20050;-75
2022/12/07 02:24:12;;;;;;;13.10;11.05;;;;;;;3.99;72.47;98871.56;5108327;28;20101;-75
2022/12/07 02:27:08;;;;;;;14.77;11.27;;;;;;;4.13;72.47;98894.66;5107914;28;20118;-75
2022/12/07 02:29:41;;;;;;;14.35;11.50;;;;;;;3.90;72.47;98860.56;5108184;28;20051;-75
2022/12/07 02:32:15;;;;;;;13.65;10.77;;;;;;;4.13;72.54;98895.53;5107424;28;20044;-75
2022/12/07 02:34:49;;;;;;;13.45;10.57;;;;;;;4.13;72.55;98899.91;5107778;28;20083;-75
2022/12/07 02:37:28;;;;;;;12.95;11.10;;;;;;;4.12;72.52;98892.97;5108199;28;20044;-76
2022/12/07 02:39:58;;;;;;;14.05;10.88;;;;;;;4.12;72.61;98899.06;5108262;28;20055;-74
2022/12/07 02:42:33;;;;;;;13.38;10.68;;;;;;;4.12;72.63;98899.06;5107675;28;20052;-74
2022/12/07 02:45:02;;;;;;;12.32;9.95;;;;;;;4.12;72.70;98900.81;5108174;28;20089;-74
2022/12/07 02:47:30;;;;;;;13.38;10.90;;;;;;;4.13;72.68;98892.91;5107833;28;20044;-74
2022/12/07 02:49:57;;;;;;;14.05;10.15;;;;;;;4.13;72.66;98902.53;5108096;28;20051;-74
2022/12/07 02:52:25;;;;;;;15.02;10.23;;;;;;;3.90;72.78;98902.50;5107458;28;20048;-75
2022/12/07 02:54:52;;;;;;;11.80;9.80;;;;;;;4.04;72.70;98885.38;5106535;28;20127;-74
2022/12/07 02:57:35;;;;;;;15.38;10.55;;;;;;;4.11;72.60;98936.69;5107640;28;20040;-74
2022/12/07 03:00:07;;;;;;;12.25;9.82;;;;;;;3.72;72.64;98826.22;5107640;28;20044;-74
2022/12/07 03:02:43;;;;;;;12.93;10.45;;;;;;;3.89;72.77;98870.19;5107515;28;20040;-74
2022/12/07 03:05:23;;;;;;;13.90;11.60;;;;;;;4.09;72.73;98895.69;5106248;28;20097;-74
2022/12/07 03:07:55;;;;;;;13.40;10.20;;;;;;;3.70;72.88;98830.69;5106942;28;20036;-74
2022/12/07 03:10:28;;;;;;;13.00;10.30;;;;;;;4.08;72.82;98897.47;5107120;28;20044;-74
2022/12/07 03:13:03;;;;;;;12.95;9.98;;;;;;;3.59;72.97;98808.38;5107307;28;20040;-74
2022/12/07 03:15:35;;;;;;;12.10;10.27;;;;;;;4.09;72.84;98901.78;5106068;28;20035;-73
2022/12/07 03:18:04;;;;;;;12.27;10.27;;;;;;;3.23;72.93;98750.28;5106860;28;20040;-74
2022/12/07 03:20:33;;;;;;;13.07;9.98;;;;;;;0.79;72.70;98337.69;5107139;28;20039;-74
2022/12/07 03:23:00;;;;;;;13.10;10.35;;;;;;;4.10;73.01;98898.25;5107670;28;20289;-73
2022/12/07 03:25:28;;;;;;;13.30;10.50;;;;;;;4.10;72.94;98890.41;5105954;28;20315;-74
2022/12/07 03:28:00;;;;;;;12.68;9.90;;;;;;;4.09;72.92;98899.16;5107295;28;20066;-73
2022/12/07 03:30:32;;;;;;;12.88;9.77;;;;;;;3.94;72.96;98867.41;5105855;28;20043;-74
2022/12/07 03:33:04;;;;;;;12.98;10.43;;;;;;;0.69;72.62;98329.31;5106979;28;20062;-75
2022/12/07 03:35:35;;;;;;;13.45;10.27;;;;;;;0.77;72.70;98340.34;5105564;28;20058;-74
2022/12/07 03:38:12;;;;;;;11.30;9.18;;;;;;;4.06;72.93;98888.78;5105635;28;20035;-74
2022/12/07 03:40:45;;;;;;;12.27;9.18;;;;;;;4.06;73.00;98894.03;5105694;28;20043;-74
2022/12/07 03:43:13;;;;;;;11.70;9.07;;;;;;;4.08;73.07;98893.97;5106470;28;20044;-74
2022/12/07 03:45:43;;;;;;;12.93;9.50;;;;;;;4.07;73.07;98893.13;5106275;28;20050;-74
2022/12/07 03:48:21;;;;;;;12.20;9.57;;;;;;;3.65;72.95;98827.38;5106906;28;20093;-73
2022/12/07 03:50:54;;;;;;;11.77;9.90;;;;;;;4.07;73.06;98890.50;5106668;28;20204;-74
2022/12/07 03:53:25;;;;;;;12.25;9.35;;;;;;;4.08;72.97;98901.84;5105498;28;20180;-73
2022/12/07 03:55:53;;;;;;;10.88;9.35;;;;;;;4.08;73.00;98897.47;5106298;28;20044;-73
2022/12/07 03:58:23;;;;;;;11.38;10.10;;;;;;;4.08;72.99;98901.84;5106722;28;20047;-74
2022/12/07 04:00:51;;;;;;;11.75;8.98;;;;;;;4.07;73.08;98900.13;5106205;28;20040;-73
2022/12/07 04:03:18;;;;;;;14.10;9.75;;;;;;;4.07;72.89;98898.38;5106722;28;20047;-73
2022/12/07 04:05:45;;;;;;;11.85;9.38;;;;;;;4.08;73.13;98894.84;5105164;28;20044;-74
2022/12/07 04:08:12;;;;;;;11.55;8.77;;;;;;;4.08;73.07;98909.72;5106088;28;20040;-74
2022/12/07 04:10:39;;;;;;;12.35;9.70;;;;;;;4.07;73.10;98903.63;5105204;28;20336;-74
2022/12/07 04:13:06;;;;;;;13.57;10.73;;;;;;;4.04;73.01;98903.72;5106261;28;20089;-73
2022/12/07 04:15:33;;;;;;;11.98;9.35;;;;;;;3.18;73.06;98789.72;5106255;28;20195;-74
2022/12/07 04:18:01;;;;;;;12.45;9.75;;;;;;;4.05;73.13;98901.97;5105830;28;20048;-74
2022/12/07 04:20:27;;;;;;;12.38;8.98;;;;;;;0.43;72.84;98304.06;5106473;28;20051;-74
2022/12/07 04:22:54;;;;;;;9.25;7.88;;;;;;;4.04;73.18;98908.97;5105893;28;20044;-74
2022/12/07 04:25:21;;;;;;;10.00;8.35;;;;;;;4.04;73.21;98911.59;5106128;28;20189;-74
2022/12/07 04:27:48;;;;;;;10.52;8.52;;;;;;;4.04;73.29;98905.50;5105769;28;20051;-74
2022/12/07 04:30:14;;;;;;;10.38;7.82;;;;;;;4.04;73.19;98913.38;5105817;28;20300;-74
2022/12/07 04:32:41;;;;;;;12.07;8.73;;;;;;;4.05;73.18;98904.59;5105433;28;20044;-74
2022/12/07 04:35:10;;;;;;;11.48;8.85;;;;;;;4.03;73.26;98911.66;5105680;28;20060;-74
2022/12/07 04:37:38;;;;;;;10.68;8.75;;;;;;;4.03;73.26;98917.75;5106202;28;20315;-74
2022/12/07 04:40:08;;;;;;;10.13;8.43;;;;;;;4.04;73.16;98905.50;5104721;28;20211;-74
2022/12/07 04:42:35;;;;;;;10.18;7.60;;;;;;;4.04;73.15;98916.84;5105837;28;20296;-73
2022/12/07 04:45:02;;;;;;;12.40;8.40;;;;;;;4.04;73.05;98908.97;5088378;28;20208;-73
2022/12/07 04:47:28;;;;;;;10.75;8.23;;;;;;;4.05;73.21;98907.22;5106152;28;20078;-74
2022/12/07 04:49:55;;;;;;;10.90;8.30;;;;;;;3.14;73.02;98760.19;5105579;28;20048;-74
2022/12/07 04:52:23;;;;;;;11.18;8.32;;;;;;;4.06;73.11;98899.28;5104647;28;20181;-74
2022/12/07 04:54:50;;;;;;;9.60;7.57;;;;;;;4.06;73.03;98896.66;5104688;28;20051;-74
2022/12/07 04:57:16;;;;;;;10.93;9.15;;;;;;;4.07;72.99;98897.53;5105802;28;20040;-74
2022/12/07 04:59:43;;;;;;;11.63;9.25;;;;;;;4.06;72.96;98899.28;5104499;28;20036;-74
2022/12/07 05:02:10;;;;;;;9.48;8.18;;;;;;;3.65;72.91;98829.13;5106029;28;20196;-74
2022/12/07 05:04:37;;;;;;;9.50;7.70;;;;;;;4.08;72.96;98893.97;5105375;28;20055;-74
2022/12/07 05:07:04;;;;;;;12.73;8.63;;;;;;;3.74;72.94;98837.53;5105345;28;20192;-74
2022/12/07 05:09:32;;;;;;;8.63;7.03;;;;;;;4.07;72.85;98897.53;5104756;28;20043;-74
2022/12/07 05:11:58;;;;;;;11.15;8.52;;;;;;;4.06;72.80;98896.66;5105949;28;20044;-74
2022/12/07 05:14:25;;;;;;;10.57;8.35;;;;;;;4.07;72.75;98900.13;5105571;28;20059;-74
2022/12/07 05:16:53;;;;;;;10.68;8.57;;;;;;;4.07;72.77;98897.53;5105683;28;20043;-74
2022/12/07 05:19:20;;;;;;;10.93;8.00;;;;;;;4.05;72.65;98900.19;5108285;28;20063;-75
2022/12/07 05:21:48;;;;;;;9.20;7.65;;;;;;;4.04;72.60;98898.47;5109109;28;20044;-74
2022/12/07 05:24:16;;;;;;;9.95;7.68;;;;;;;3.53;72.72;98826.03;5108303;28;20193;-74
2022/12/07 05:26:45;;;;;;;9.00;7.32;;;;;;;4.06;72.45;98903.69;5108566;28;20039;-74
2022/12/07 05:29:12;;;;;;;9.57;7.35;;;;;;;4.05;72.35;98894.09;5108166;28;20040;-74
2022/12/07 05:31:39;;;;;;;7.70;6.68;;;;;;;4.06;72.32;98901.91;5109517;28;20055;-74
2022/12/07 05:34:06;;;;;;;11.75;9.63;;;;;;;4.06;72.46;98899.28;5108581;28;20060;-74
2022/12/07 05:36:32;;;;;;;10.48;7.60;;;;;;;4.06;72.46;98891.41;5109414;28;20074;-74
2022/12/07 05:38:59;;;;;;;9.98;7.88;;;;;;;4.07;72.37;98897.53;5108789;28;20040;-75
2022/12/07 05:44:12;;;;;;;8.93;7.53;;;;;;;2.28;71.89;98595.69;5109040;28;20123;-74
2022/12/07 05:46:39;;;;;;;9.75;7.60;;;;;;;4.05;72.31;98900.19;5108989;28;20054;-74
2022/12/07 05:49:05;;;;;;;9.10;6.60;;;;;;;4.06;72.25;98896.66;5108940;28;20044;-74
2022/12/07 05:51:32;;;;;;;8.60;6.82;;;;;;;4.06;72.16;98896.66;5107641;28;20051;-74
2022/12/07 05:53:59;;;;;;;8.50;6.95;;;;;;;3.67;72.15;98832.56;5108631;28;20055;-74
2022/12/07 05:56:26;;;;;;;9.93;7.68;;;;;;;4.08;72.05;98900.09;5108420;28;20040;-74
2022/12/07 06:01:39;;;;;;;8.93;6.57;;;;;;;4.06;71.86;98901.91;5108679;28;20050;-74
2022/12/07 06:04:05;;;;;;;9.55;6.78;;;;;;;4.07;71.96;98902.75;5108838;28;20070;-74
2022/12/07 06:06:32;;;;;;;7.90;6.40;;;;;;;3.96;72.04;98884.78;5107792;28;20101;-74
2022/12/07 06:08:59;;;;;;;7.82;6.15;;;;;;;3.84;71.96;98861.63;5108546;28;20195;-74
2022/12/07 06:14:10;;;;;;;9.20;7.33;;;;;;;4.08;71.79;98905.31;5107851;28;20046;-74
2022/12/07 06:16:37;;;;;;;8.07;6.63;;;;;;;4.09;71.81;98907.03;5108299;28;20094;-74
2022/12/07 06:19:05;;;;;;;8.00;6.45;;;;;;;4.09;71.82;98900.94;5108286;28;20039;-74
2022/12/07 06:21:32;;;;;;;8.27;7.13;;;;;;;2.51;71.75;98638.47;5108007;28;20048;-74
2022/12/07 06:23:59;;;;;;;9.07;6.95;;;;;;;4.10;71.67;98906.13;5108061;28;20046;-74
2022/12/07 06:26:25;;;;;;;7.93;6.55;;;;;;;4.10;71.70;98906.13;5107140;28;20039;-74
2022/12/07 06:28:52;;;;;;;9.35;7.38;;;;;;;4.12;71.70;98904.31;5107389;28;20134;-74
2022/12/07 06:31:19;;;;;;;11.07;7.28;;;;;;;4.13;71.50;98899.91;5108065;28;20195;-74
2022/12/07 06:33:46;;;;;;;9.25;7.60;;;;;;;4.13;71.28;98905.16;5107691;28;20047;-75
2022/12/07 06:36:14;;;;;;;9.98;7.70;;;;;;;3.91;71.43;98876.22;5107845;28;20089;-74
2022/12/07 06:38:41;;;;;;;9.27;6.63;;;;;;;4.11;71.39;98910.47;5107780;28;20089;-74
2022/12/07 06:41:08;;;;;;;8.70;7.30;;;;;;;4.11;71.39;98910.47;5107507;28;20055;-74
2022/12/07 06:43:35;;;;;;;9.40;8.15;;;;;;;4.12;71.44;98917.41;5106630;28;20086;-74
2022/12/07 06:46:02;;;;;;;10.68;8.27;;;;;;;4.11;71.38;98914.84;5106915;28;20048;-74
2022/12/07 06:48:29;;;;;;;9.13;7.03;;;;;;;4.12;71.51;98916.56;5107983;28;20211;-74
2022/12/07 06:50:55;;;;;;;9.88;8.27;;;;;;;4.11;71.26;98920.09;5107292;28;20065;-74
2022/12/07 06:53:24;;;;;;;10.43;7.47;;;;;;;4.11;71.29;98914.84;5107362;28;20227;-74
2022/12/07 06:55:51;;;;;;;8.98;6.60;;;;;;;4.11;71.15;98913.09;5107234;28;20089;-74
2022/12/07 06:58:18;;;;;;;10.38;7.22;;;;;;;4.12;71.18;98924.44;5107475;28;20333;-74
2022/12/07 07:00:46;;;;;;;8.38;6.35;;;;;;;3.90;71.16;98882.38;5106946;28;20036;-74
2022/12/07 07:03:13;;;;;;;10.38;7.10;;;;;;;4.13;71.01;98916.50;5107204;28;20085;-74
2022/12/07 07:05:39;;;;;;;9.60;6.38;;;;;;;4.13;71.08;98907.78;5107418;28;20117;-74
2022/12/07 07:08:06;;;;;;;9.57;7.03;;;;;;;4.13;70.96;98913.03;5106162;28;20327;-74
2022/12/07 07:10:34;;;;;;;9.02;6.80;;;;;;;4.13;70.84;98905.16;5107184;28;20040;-74
2022/12/07 07:13:01;;;;;;;10.40;7.45;;;;;;;4.13;70.90;98911.25;5106086;28;20067;-75
2022/12/07 07:15:28;;;;;;;9.32;6.85;;;;;;;4.15;70.92;98911.22;5106830;28;20044;-75
2022/12/07 07:17:55;;;;;;;8.13;6.30;;;;;;;3.96;70.90;98883.94;5107128;28;20052;-74
2022/12/07 07:20:22;;;;;;;10.13;6.88;;;;;;;4.15;70.87;98911.22;5106944;28;20097;-74
2022/12/07 07:22:49;;;;;;;10.93;8.20;;;;;;;4.15;70.86;98912.06;5106991;28;20102;-74
2022/12/07 07:25:15;;;;;;;8.10;6.38;;;;;;;4.16;70.82;98924.28;5106919;28;20089;-74
2022/12/07 07:27:44;;;;;;;8.52;6.80;;;;;;;4.17;70.73;98928.59;5107295;28;20089;-75
2022/12/07 07:30:11;;;;;;;10.23;7.30;;;;;;;3.15;70.79;98755.78;5106939;28;20303;-74
2022/12/07 07:32:38;;;;;;;10.80;7.57;;;;;;;4.17;70.76;98928.59;5089015;28;20093;-74
2022/12/07 07:35:05;;;;;;;9.35;7.15;;;;;;;4.18;70.87;98930.31;5106483;28;20219;-74
2022/12/07 07:37:33;;;;;;;9.57;6.95;;;;;;;3.67;70.87;98848.28;5106877;28;20326;-74
2022/12/07 07:39:59;;;;;;;10.70;7.95;;;;;;;4.19;70.85;98923.31;5104809;28;20040;-74
2022/12/07 07:42:26;;;;;;;10.25;7.15;;;;;;;4.18;70.83;98934.69;5106603;28;20109;-74
2022/12/07 07:44:54;;;;;;;9.85;7.65;;;;;;;4.19;70.83;98923.31;5106602;28;20052;-74
2022/12/07 07:47:21;;;;;;;9.98;7.53;;;;;;;4.21;70.76;98937.25;5106551;28;20040;-74
2022/12/07 07:49:47;;;;;;;9.20;7.55;;;;;;;4.22;70.64;98930.22;5106254;28;20044;-74
2022/12/07 07:52:14;;;;;;;7.93;6.60;;;;;;;4.21;70.54;98932.00;5105490;28;20043;-74
2022/12/07 07:54:41;;;;;;;8.30;6.53;;;;;;;4.22;70.40;98933.72;5106770;28;20089;-74
2022/12/07 07:57:08;;;;;;;9.07;7.47;;;;;;;4.22;70.49;98923.22;5106877;28;20039;-75
2022/12/07 07:59:35;;;;;;;7.75;6.70;;;;;;;4.23;70.45;98937.19;5105611;28;20322;-75
2022/12/07 08:02:03;;;;;;;9.00;6.00;;;;;;;4.22;70.39;98938.97;5106549;28;20044;-74
2022/12/07 08:04:30;;;;;;;7.63;6.55;;;;;;;4.23;70.22;98937.19;5088548;28;20047;-75
2022/12/07 08:06:58;;;;;;;8.68;6.65;;;;;;;4.21;70.34;98937.25;5106370;28;20048;-74
2022/12/07 08:09:24;;;;;;;10.48;8.02;;;;;;;4.21;70.32;98939.00;5106155;28;20051;-74
2022/12/07 08:11:51;;;;;;;11.15;6.55;;;;;;;4.19;70.20;98949.53;5105413;28;20047;-74
2022/12/07 08:14:18;;;;;;;7.57;6.55;;;;;;;4.20;70.39;98943.41;5106139;28;20276;-74
2022/12/07 08:16:44;;;;;;;8.52;6.53;;;;;;;4.08;70.45;98928.06;5105835;28;20044;-74
2022/12/07 08:19:12;;;;;;;7.13;6.15;;;;;;;4.21;70.44;98942.50;5104951;28;20181;-75
2022/12/07 08:21:39;;;;;;;7.32;6.30;;;;;;;4.23;70.38;98945.06;5105997;28;20097;-75
2022/12/07 08:24:07;;;;;;;7.53;6.60;;;;;;;4.24;70.57;98942.38;5105893;28;20036;-75
2022/12/07 08:26:34;;;;;;;8.27;6.85;;;;;;;4.07;70.43;98913.25;5105735;28;20300;-74
2022/12/07 08:29:01;;;;;;;7.80;6.47;;;;;;;4.27;70.46;98946.66;5106198;28;20054;-74
2022/12/07 08:31:29;;;;;;;8.43;6.15;;;;;;;4.28;70.28;98949.22;5105936;28;20044;-74
2022/12/07 08:33:56;;;;;;;7.35;6.45;;;;;;;0.86;69.86;98375.72;5104576;28;20075;-75
2022/12/07 08:36:24;;;;;;;8.02;6.80;;;;;;;4.31;70.09;98964.88;5105771;28;20062;-74
2022/12/07 08:38:51;;;;;;;7.72;6.45;;;;;;;4.32;70.21;98961.31;5106035;28;20040;-75
2022/12/07 08:41:18;;;;;;;8.55;6.60;;;;;;;2.95;70.04;98726.81;5105263;28;20039;-76
2022/12/07 08:43:45;;;;;;;6.97;5.78;;;;;;;4.35;69.95;98961.22;5105685;28;20052;-75
2022/12/07 08:46:18;;;;;;;6.28;5.38;;;;;;;4.17;69.78;98935.63;5105369;28;20036;-75
2022/12/07 08:48:50;;;;;;;8.20;6.60;;;;;;;4.36;69.65;98973.44;5105465;28;20050;-75
2022/12/07 08:51:17;;;;;;;8.27;5.80;;;;;;;4.37;69.70;98967.25;5107304;28;20296;-75
2022/12/07 08:53:45;;;;;;;7.95;6.40;;;;;;;4.39;69.42;98980.31;5110228;28;20053;-75
2022/12/07 08:56:12;;;;;;;7.50;5.55;;;;;;;4.40;69.11;98969.78;5108654;28;20044;-76
2022/12/07 08:58:40;;;;;;;6.35;5.72;;;;;;;4.41;68.93;98975.88;5109855;28;20051;-75
2022/12/07 09:01:07;;;;;;;9.20;7.45;;;;;;;4.43;68.68;98974.06;5108623;28;20211;-76
2022/12/07 09:03:34;;;;;;;7.07;6.20;;;;;;;4.07;68.65;98913.25;5109690;28;20312;-75
2022/12/07 09:06:01;;;;;;;7.10;5.80;;;;;;;4.43;68.13;98979.31;5109566;28;20284;-74
2022/12/07 09:08:33;;;;;;;8.10;6.45;;;;;;;4.43;67.81;98968.81;5108361;28;20093;-74
2022/12/07 09:11:01;;;;;;;7.40;5.95;;;;;;;4.44;67.91;98974.00;5108824;28;20101;-75
2022/12/07 09:13:28;;;;;;;7.40;6.03;;;;;;;4.47;67.84;98975.66;5109254;28;20078;-74
2022/12/07 09:15:55;;;;;;;8.18;6.50;;;;;;;4.49;67.73;98972.06;5109451;28;20051;-74
2022/12/07 09:18:21;;;;;;;8.18;6.72;;;;;;;4.51;67.22;98966.75;5109316;28;20085;-74
2022/12/07 09:20:48;;;;;;;7.13;6.10;;;;;;;4.23;67.34;98918.84;5108884;28;20334;-75
2022/12/07 09:23:15;;;;;;;7.35;6.28;;;;;;;4.48;67.36;98966.88;5109050;28;20044;-75
2022/12/07 09:25:42;;;;;;;8.52;6.60;;;;;;;4.49;67.16;98965.97;5109296;28;20047;-75
2022/12/07 09:28:10;;;;;;;11.02;7.18;;;;;;;3.42;67.21;98775.78;5108100;28;20044;-75
2022/12/07 09:30:37;;;;;;;11.85;8.38;;;;;;;4.17;67.12;98899.75;5108356;28;20040;-75
2022/12/07 09:33:03;;;;;;;7.47;6.47;;;;;;;4.62;66.92;98948.84;5108132;28;20063;-75
2022/12/07 09:35:30;;;;;;;8.38;6.63;;;;;;;4.70;66.82;98946.78;5108437;28;20056;-75
2022/12/07 09:37:57;;;;;;;7.90;5.97;;;;;;;4.84;66.63;98972.53;5108580;28;20319;-75
2022/12/07 09:40:25;;;;;;;7.18;6.47;;;;;;;5.03;66.35;98938.56;5107653;28;20292;-75
2022/12/07 09:42:54;;;;;;;6.63;5.93;;;;;;;4.25;65.98;98833.94;5107720;28;20043;-75
2022/12/07 09:45:28;;;;;;;7.28;6.18;;;;;;;5.36;65.37;98947.72;5107979;28;20036;-75
2022/12/07 09:47:55;;;;;;;9.90;7.28;;;;;;;5.56;65.51;98953.94;5108904;28;20056;-75
2022/12/07 09:50:25;;;;;;;8.95;7.50;;;;;;;5.68;64.21;98954.28;5108773;28;20222;-75
2022/12/07 09:52:54;;;;;;;8.38;7.32;;;;;;;5.74;64.61;98958.44;5108568;28;20031;-75
2022/12/07 09:55:26;;;;;;;8.82;7.55;;;;;;;5.77;63.86;98940.75;5108436;28;20098;-75
2022/12/07 09:57:54;;;;;;;8.48;7.30;;;;;;;5.91;64.30;98949.84;5108560;28;20090;-75
2022/12/07 10:00:25;;;;;;;9.02;7.60;;;;;;;5.44;64.04;98861.53;5108277;28;20064;-75
2022/12/07 10:02:56;;;;;;;8.25;6.85;;;;;;;6.13;63.27;98945.34;5106956;28;20361;-75
2022/12/07 10:05:27;;;;;;;9.30;7.75;;;;;;;5.49;62.91;98808.78;5107733;28;20090;-75
2022/12/07 10:07:54;;;;;;;7.53;6.63;;;;;;;6.34;62.94;98930.41;5108448;28;20097;-75
2022/12/07 10:10:26;;;;;;;10.32;7.70;;;;;;;6.43;61.61;98928.22;5108143;28;20176;-75
2022/12/07 10:12:58;;;;;;;7.93;6.82;;;;;;;5.93;60.62;98837.53;5108349;28;20039;-75
2022/12/07 10:15:43;;;;;;;7.28;6.40;;;;;;;6.69;58.51;98907.72;5107248;28;20219;-75
2022/12/07 10:18:20;;;;;;;6.97;6.28;;;;;;;6.82;59.11;98918.56;5108002;28;20036;-76
2022/12/07 10:20:48;;;;;;;6.95;5.72;;;;;;;6.97;61.28;98900.28;5107765;28;20115;-75
2022/12/07 10:23:16;;;;;;;8.98;7.05;;;;;;;7.12;60.59;98913.63;5107083;28;20085;-76
2022/12/07 10:25:45;;;;;;;7.63;6.80;;;;;;;7.08;60.32;98883.94;5108515;28;20039;-75
2022/12/07 10:28:15;;;;;;;8.30;6.45;;;;;;;7.36;59.90;98912.47;5107886;28;20051;-76
2022/12/07 10:30:58;;;;;;;7.45;6.60;;;;;;;7.53;57.12;98903.72;5108323;28;20101;-76
2022/12/07 10:33:34;;;;;;;6.05;5.38;;;;;;;7.64;56.92;98915.44;5107779;28;20200;-75
2022/12/07 10:36:16;;;;;;;7.07;6.38;;;;;;;7.78;59.15;98891.00;5108337;28;20036;-76
2022/12/07 10:38:46;;;;;;;9.10;6.35;;;;;;;7.68;57.76;98869.53;5107671;28;20216;-75
2022/12/07 10:41:13;;;;;;;7.18;5.60;;;;;;;7.24;58.19;98802.34;5108261;28;20299;-75
2022/12/07 10:43:53;;;;;;;6.38;5.63;;;;;;;7.55;55.54;98857.91;5108146;28;20184;-75
2022/12/07 10:46:55;;;;;;;7.03;6.00;;;;;;;7.67;54.06;98888.94;5106412;28;20393;-75
2022/12/07 10:49:54;;;;;;;8.52;6.45;;;;;;;7.47;54.05;98894.34;5089787;28;20071;-75
2022/12/07 10:52:36;;;;;;;7.07;5.22;;;;;;;7.30;55.70;98896.94;5106485;28;20044;-75
2022/12/07 10:55:16;;;;;;;7.30;6.50;;;;;;;7.13;55.93;98892.47;5107566;28;20036;-75
2022/12/07 10:57:57;;;;;;;6.65;5.78;;;;;;;7.00;56.97;98892.22;5107448;28;20052;-76
2022/12/07 11:00:25;;;;;;;7.10;6.28;;;;;;;6.86;59.09;98888.53;5108096;28;20180;-75
2022/12/07 11:03:11;;;;;;;6.82;6.13;;;;;;;6.70;56.34;98894.50;5107180;28;20284;-75
2022/12/07 11:05:49;;;;;;;6.93;6.22;;;;;;;6.56;57.31;98896.91;5090541;28;20060;-75
2022/12/07 11:08:24;;;;;;;6.80;5.88;;;;;;;6.45;58.39;98893.06;5107393;28;20046;-76
2022/12/07 11:11:01;;;;;;;8.60;7.03;;;;;;;6.35;57.79;98896.13;5107256;28;20296;-75
2022/12/07 11:13:36;;;;;;;7.13;6.40;;;;;;;6.28;58.63;98912.25;5106792;28;20049;-75
2022/12/07 11:16:20;;;;;;;8.88;7.57;;;;;;;6.22;57.50;98910.75;5106482;28;20103;-75
2022/12/07 11:18:58;;;;;;;8.25;7.40;;;;;;;6.16;58.05;98897.84;5102258;28;20052;-76
2022/12/07 11:21:32;;;;;;;6.63;5.53;;;;;;;5.95;58.35;98859.34;5105960;28;20040;-75
2022/12/07 11:24:04;;;;;;;6.88;5.97;;;;;;;6.14;58.23;98894.44;5106154;28;20048;-75
2022/12/07 11:26:47;;;;;;;6.85;5.55;;;;;;;6.10;57.41;98899.00;5107034;28;20052;-76
2022/12/07 11:29:29;;;;;;;7.88;5.47;;;;;;;5.91;56.95;98871.78;5105780;28;20043;-76
2022/12/07 11:32:06;;;;;;;7.43;5.53;;;;;;;6.00;56.60;98897.69;5106693;28;20089;-76
2022/12/07 11:34:40;;;;;;;7.05;6.03;;;;;;;5.99;57.28;98879.34;5106546;28;20311;-76
2022/12/07 11:37:13;;;;;;;6.57;5.13;;;;;;;5.57;57.08;98824.22;5106499;28;20066;-75
2022/12/07 11:39:47;;;;;;;6.55;5.50;;;;;;;5.86;58.58;98884.28;5106508;28;20050;-75
2022/12/07 11:42:21;;;;;;;5.97;5.38;;;;;;;5.48;59.12;98817.56;5105702;28;20047;-75
2022/12/07 11:44:53;;;;;;;7.05;5.82;;;;;;;5.78;58.35;98876.72;5105441;28;20051;-76
2022/12/07 11:47:27;;;;;;;6.75;5.57;;;;;;;5.27;56.79;98829.84;5106145;28;20039;-75
2022/12/07 11:49:58;;;;;;;5.85;5.15;;;;;;;5.69;58.68;98879.75;5105443;28;20069;-76
2022/12/07 11:52:33;;;;;;;6.38;5.40;;;;;;;5.71;57.99;98879.69;5106510;28;20058;-76
2022/12/07 11:55:03;;;;;;;6.22;5.25;;;;;;;5.83;58.80;98880.94;5106031;28;20044;-76
2022/12/07 11:57:38;;;;;;;5.30;4.80;;;;;;;5.96;57.25;98879.47;5106521;28;20048;-76